Time;durP1;ratioP1;P1;durP2;ratioP2;P2;SDS_P1;SDS_P2;PMS_P1;PMS_P2;Temp;Humidity;BMP_temperature;BMP_pressure;BME280_temperature;BME280_humidity;BME280_pressure;Samples;Min_cycle;Max_cycle;Signal;HPM_P1;HPM_P2
2022/08/22 00:01:01;;;;;;;9.82;4.75;;;;;;;;;;4993194;28;20029;-76
2022/08/22 00:03:42;;;;;;;9.80;5.10;;;;;;;;;;5000313;28;20045;-76
2022/08/22 00:06:41;;;;;;;5.53;4.53;;;;;;;;;;5009648;28;20046;-75
2022/08/22 00:09:28;;;;;;;8.68;4.85;;;;;;;;;;4971245;28;21224;-73
2022/08/22 00:12:12;;;;;;;9.07;4.38;;;;;;;;;;5001771;28;20034;-77
2022/08/22 00:14:57;;;;;;;9.45;4.70;;;;;;;;;;4979270;28;20030;-77
2022/08/22 00:17:38;;;;;;;8.68;4.93;;;;;;;;;;4992102;28;20027;-75
2022/08/22 00:20:04;;;;;;;6.35;4.03;;;;;;;;;;4991631;28;20030;-76
2022/08/22 00:22:38;;;;;;;9.90;4.88;;;;;;;;;;4991062;28;20385;-76
2022/08/22 00:25:10;;;;;;;9.27;4.32;;;;;;;;;;4992695;28;20469;-76
2022/08/22 00:27:58;;;;;;;7.53;3.90;;;;;;;;;;4992092;28;20030;-76
2022/08/22 00:30:25;;;;;;;6.35;3.90;;;;;;;;;;4992994;28;20045;-75
2022/08/22 00:33:02;;;;;;;15.52;5.43;;;;;;;;;;4992876;28;20092;-76
2022/08/22 00:35:28;;;;;;;7.38;4.30;;;;;;;;;;4992088;28;20081;-75
2022/08/22 00:38:07;;;;;;;8.07;4.38;;;;;;;;;;4991776;28;20019;-76
2022/08/22 00:40:52;;;;;;;12.35;5.05;;;;;;;;;;4990597;28;20603;-75
2022/08/22 00:43:37;;;;;;;7.35;4.43;;;;;;;;;;4992049;28;20037;-76
2022/08/22 00:46:09;;;;;;;11.55;5.20;;;;;;;;;;4990451;28;20392;-75
2022/08/22 00:48:35;;;;;;;8.40;4.40;;;;;;;;;;4993080;28;20034;-76
2022/08/22 00:51:20;;;;;;;10.45;4.35;;;;;;;;;;4990921;28;20026;-75
2022/08/22 00:53:49;;;;;;;7.57;4.15;;;;;;;;;;4992159;28;20030;-74
2022/08/22 00:56:18;;;;;;;9.18;4.60;;;;;;;;;;4978140;28;20015;-75
2022/08/22 00:58:44;;;;;;;7.97;4.03;;;;;;;;;;4991986;28;20094;-74
2022/08/22 01:01:12;;;;;;;6.80;4.40;;;;;;;;;;4991664;28;20533;-75
2022/08/22 01:03:47;;;;;;;8.13;4.60;;;;;;;;;;4991888;28;20198;-76
2022/08/22 01:06:24;;;;;;;7.60;4.55;;;;;;;;;;4992985;28;20033;-75
2022/08/22 01:09:02;;;;;;;6.72;4.15;;;;;;;;;;4993697;28;20030;-77
2022/08/22 01:11:44;;;;;;;8.65;4.43;;;;;;;;;;4991558;28;20022;-74
2022/08/22 01:14:18;;;;;;;9.73;5.40;;;;;;;;;;4991700;28;20029;-75
2022/08/22 01:16:57;;;;;;;6.30;4.22;;;;;;;;;;4992029;28;20114;-77
2022/08/22 01:19:30;;;;;;;8.73;4.75;;;;;;;;;;4991547;28;20026;-76
2022/08/22 01:22:19;;;;;;;5.95;3.95;;;;;;;;;;4991870;28;20026;-74
2022/08/22 01:27:49;;;;;;;6.22;3.97;;;;;;;;;;4995085;28;20089;-74
2022/08/22 01:30:21;;;;;;;8.65;4.03;;;;;;;;;;4995444;28;20034;-76
2022/08/22 01:32:56;;;;;;;9.00;4.47;;;;;;;;;;4995265;28;20031;-76
2022/08/22 01:35:28;;;;;;;6.82;4.55;;;;;;;;;;4995559;28;20508;-74
2022/08/22 01:37:57;;;;;;;12.55;4.05;;;;;;;;;;4982044;28;20034;-76
2022/08/22 01:40:44;;;;;;;8.00;4.50;;;;;;;;;;4995345;28;20023;-77
2022/08/22 01:43:10;;;;;;;8.30;4.25;;;;;;;;;;4984958;28;20451;-76
2022/08/22 01:45:55;;;;;;;7.22;4.03;;;;;;;;;;4995082;28;20045;-76
2022/08/22 01:48:30;;;;;;;5.82;4.28;;;;;;;;;;4993964;28;20503;-76
2022/08/22 01:50:58;;;;;;;8.35;4.32;;;;;;;;;;4995258;28;20027;-77
2022/08/22 01:53:43;;;;;;;8.85;4.15;;;;;;;;;;4994970;28;20029;-76
2022/08/22 01:56:15;;;;;;;7.75;4.45;;;;;;;;;;4995374;28;20069;-75
2022/08/22 01:58:54;;;;;;;4.78;3.90;;;;;;;;;;4994760;28;20050;-77
2022/08/22 02:01:23;;;;;;;6.80;3.85;;;;;;;;;;4981671;28;20106;-75
2022/08/22 02:04:07;;;;;;;8.50;4.22;;;;;;;;;;4995328;28;20109;-76
2022/08/22 02:06:44;;;;;;;6.07;4.03;;;;;;;;;;4995293;28;20034;-76
2022/08/22 02:09:20;;;;;;;8.60;3.95;;;;;;;;;;4994298;28;20023;-75
2022/08/22 02:11:49;;;;;;;11.55;4.38;;;;;;;;;;4995022;28;20022;-75
2022/08/22 02:14:18;;;;;;;7.85;4.00;;;;;;;;;;4993295;28;20054;-75
2022/08/22 02:16:47;;;;;;;6.80;4.13;;;;;;;;;;4994803;28;20046;-75
2022/08/22 02:19:13;;;;;;;7.40;4.18;;;;;;;;;;4994299;28;20018;-75
2022/08/22 02:21:42;;;;;;;9.05;3.95;;;;;;;;;;4994822;28;20468;-76
2022/08/22 02:24:18;;;;;;;7.85;4.35;;;;;;;;;;4994488;28;20105;-77
2022/08/22 02:27:03;;;;;;;7.07;4.00;;;;;;;;;;4993509;28;20042;-76
2022/08/22 02:29:33;;;;;;;6.45;4.00;;;;;;;;;;4994270;28;20022;-77
2022/08/22 02:32:08;;;;;;;7.70;4.20;;;;;;;;;;4995001;28;20030;-77
2022/08/22 02:34:34;;;;;;;6.93;4.40;;;;;;;;;;4993423;28;20300;-76
2022/08/22 02:37:09;;;;;;;7.97;3.88;;;;;;;;;;4994254;28;20058;-76
2022/08/22 02:39:38;;;;;;;7.38;4.43;;;;;;;;;;4994481;28;20029;-76
2022/08/22 02:42:19;;;;;;;9.30;4.05;;;;;;;;;;4994717;28;20065;-76
2022/08/22 02:44:51;;;;;;;7.97;3.80;;;;;;;;;;4981279;28;20113;-76
2022/08/22 02:47:27;;;;;;;7.78;3.92;;;;;;;;;;4993855;28;20801;-74
2022/08/22 02:50:19;;;;;;;7.10;4.28;;;;;;;;;;4993092;28;20112;-75
2022/08/22 02:52:54;;;;;;;8.32;4.00;;;;;;;;;;4990738;28;20039;-75
2022/08/22 02:55:31;;;;;;;6.10;4.10;;;;;;;;;;4994131;28;20535;-76
2022/08/22 02:58:02;;;;;;;7.35;3.83;;;;;;;;;;4992368;28;20018;-74
2022/08/22 03:00:30;;;;;;;9.82;4.45;;;;;;;;;;4994161;28;20018;-77
2022/08/22 03:02:56;;;;;;;5.25;3.80;;;;;;;;;;4993956;28;20030;-76
2022/08/22 03:05:28;;;;;;;419.38;295.80;;;;;;;;;;4994112;28;20500;-75
2022/08/22 03:08:17;;;;;;;277.48;144.88;;;;;;;;;;4980495;28;20114;-77
2022/08/22 03:10:47;;;;;;;268.30;151.45;;;;;;;;;;4957613;28;20054;-77
2022/08/22 03:13:16;;;;;;;109.78;55.85;;;;;;;;;;4993429;28;20026;-74
2022/08/22 03:15:45;;;;;;;24.15;11.38;;;;;;;;;;4992986;28;20539;-76
2022/08/22 03:18:18;;;;;;;42.75;20.23;;;;;;;;;;5009488;23;20044;-74
2022/08/22 03:20:57;;;;;;;14.40;7.07;;;;;;;;;;4993055;28;20113;-75
2022/08/22 03:23:28;;;;;;;27.83;12.90;;;;;;;;;;4993416;28;20022;-74
2022/08/22 03:26:04;;;;;;;14.75;6.40;;;;;;;;;;4975562;28;20069;-73
2022/08/22 03:28:32;;;;;;;5.70;4.15;;;;;;;;;;4993070;28;20124;-73
2022/08/22 03:31:16;;;;;;;6.03;3.53;;;;;;;;;;4993104;28;20133;-73
2022/08/22 03:33:42;;;;;;;6.13;3.85;;;;;;;;;;4993307;28;20030;-73
2022/08/22 03:36:11;;;;;;;8.10;4.60;;;;;;;;;;4975505;28;20050;-73
2022/08/22 03:38:48;;;;;;;5.68;3.50;;;;;;;;;;4992968;28;20028;-73
2022/08/22 03:41:41;;;;;;;5.95;4.38;;;;;;;;;;4993078;28;20540;-73
2022/08/22 03:44:19;;;;;;;9.25;4.78;;;;;;;;;;4992983;28;20793;-73
2022/08/22 03:46:51;;;;;;;4.93;3.38;;;;;;;;;;4992521;28;20473;-73
2022/08/22 03:49:35;;;;;;;6.25;4.10;;;;;;;;;;4992721;28;20546;-73
2022/08/22 03:52:08;;;;;;;6.82;4.10;;;;;;;;;;4975787;28;20074;-73
2022/08/22 03:54:34;;;;;;;10.20;4.78;;;;;;;;;;4979596;28;20073;-74
2022/08/22 03:57:09;;;;;;;5.13;4.03;;;;;;;;;;4992812;28;20530;-73
2022/08/22 03:59:54;;;;;;;8.88;4.38;;;;;;;;;;4983975;28;20022;-73
2022/08/22 04:02:39;;;;;;;11.90;4.53;;;;;;;;;;4992738;28;20552;-73
2022/08/22 04:05:12;;;;;;;9.38;5.00;;;;;;;;;;4992776;28;20030;-74
2022/08/22 04:08:01;;;;;;;9.48;4.82;;;;;;;;;;4974857;28;20019;-74
2022/08/22 04:10:46;;;;;;;7.13;4.50;;;;;;;;;;4992586;28;20030;-74
2022/08/22 04:13:21;;;;;;;10.50;3.92;;;;;;;;;;4992723;28;20400;-74
2022/08/22 04:15:47;;;;;;;6.30;4.22;;;;;;;;;;4992337;28;20443;-74
2022/08/22 04:18:32;;;;;;;6.95;4.53;;;;;;;;;;4992271;28;20314;-74
2022/08/22 04:21:10;;;;;;;6.63;4.28;;;;;;;;;;4974938;28;20500;-74
2022/08/22 04:23:50;;;;;;;8.20;4.10;;;;;;;;;;4975263;28;20037;-74
2022/08/22 04:26:22;;;;;;;7.80;3.90;;;;;;;;;;4992759;28;20023;-74
2022/08/22 04:28:50;;;;;;;8.43;3.83;;;;;;;;;;4991796;28;20026;-74
2022/08/22 04:31:21;;;;;;;7.18;3.92;;;;;;;;;;4992499;28;20345;-74
2022/08/22 04:33:47;;;;;;;7.53;3.88;;;;;;;;;;4992306;28;20472;-76
2022/08/22 04:36:36;;;;;;;7.97;4.40;;;;;;;;;;4992879;28;20058;-74
2022/08/22 04:39:12;;;;;;;8.02;4.47;;;;;;;;;;4991977;28;20029;-73
2022/08/22 04:41:47;;;;;;;12.38;4.68;;;;;;;;;;4992358;28;20036;-73
2022/08/22 04:44:33;;;;;;;5.22;3.97;;;;;;;;;;4992263;28;20392;-73
2022/08/22 04:46:59;;;;;;;5.47;3.30;;;;;;;;;;4942732;28;20039;-74
2022/08/22 04:49:25;;;;;;;8.73;3.65;;;;;;;;;;4991101;28;20449;-75
2022/08/22 04:52:03;;;;;;;7.78;3.80;;;;;;;;;;4974595;28;20057;-74
2022/08/22 04:54:48;;;;;;;8.88;4.15;;;;;;;;;;4991618;28;20025;-73
2022/08/22 04:57:33;;;;;;;7.38;4.13;;;;;;;;;;4991150;28;20022;-73
2022/08/22 05:00:10;;;;;;;8.05;4.03;;;;;;;;;;4992166;28;20384;-74
2022/08/22 05:02:37;;;;;;;8.35;3.67;;;;;;;;;;4991879;28;20034;-74
2022/08/22 05:05:05;;;;;;;9.60;4.72;;;;;;;;;;4992046;28;20433;-74
2022/08/22 05:07:37;;;;;;;13.00;4.47;;;;;;;;;;4973742;28;20092;-73
2022/08/22 05:10:02;;;;;;;;;;;;;;;;;;4974988;28;20038;-73
2022/08/22 05:12:33;;;;;;;6.75;3.78;;;;;;;;;;4991529;28;19909;-74
2022/08/22 05:15:13;;;;;;;10.50;4.37;;;;;;;;;;4992153;28;20023;-73
2022/08/22 05:17:40;;;;;;;8.23;4.10;;;;;;;;;;4991193;28;20105;-74
2022/08/22 05:20:09;;;;;;;7.20;4.05;;;;;;;;;;4974678;28;20026;-74
2022/08/22 05:22:39;;;;;;;6.65;3.83;;;;;;;;;;4991672;28;20033;-74
2022/08/22 05:25:09;;;;;;;9.23;3.97;;;;;;;;;;4991938;28;20395;-74
2022/08/22 05:27:39;;;;;;;8.57;3.97;;;;;;;;;;4991472;28;20034;-74
2022/08/22 05:30:08;;;;;;;8.38;3.92;;;;;;;;;;4991722;28;20477;-74
2022/08/22 05:32:53;;;;;;;7.95;3.95;;;;;;;;;;4991496;28;20113;-74
2022/08/22 05:35:24;;;;;;;8.23;3.65;;;;;;;;;;4991873;28;20502;-74
2022/08/22 05:37:52;;;;;;;8.85;4.10;;;;;;;;;;4991376;28;20045;-73
2022/08/22 05:40:23;;;;;;;8.48;3.88;;;;;;;;;;4991822;28;20037;-75
2022/08/22 05:42:50;;;;;;;7.20;3.90;;;;;;;;;;4991403;28;20023;-73
2022/08/22 05:45:17;;;;;;;9.02;4.00;;;;;;;;;;4991712;28;20031;-73
2022/08/22 05:47:48;;;;;;;12.38;4.28;;;;;;;;;;4990995;28;20033;-73
2022/08/22 05:50:14;;;;;;;10.02;4.13;;;;;;;;;;4991569;28;20057;-74
2022/08/22 05:52:59;;;;;;;8.00;4.15;;;;;;;;;;4973637;28;20034;-74
2022/08/22 05:55:38;;;;;;;9.65;4.47;;;;;;;;;;4991469;28;20054;-74
2022/08/22 05:58:08;;;;;;;11.23;3.90;;;;;;;;;;4979654;28;20022;-74
2022/08/22 06:00:37;;;;;;;7.75;4.13;;;;;;;;;;4991244;28;20022;-75
2022/08/22 06:03:14;;;;;;;8.48;4.10;;;;;;;;;;4991292;28;20109;-74
2022/08/22 06:05:42;;;;;;;8.55;3.63;;;;;;;;;;4973774;28;20400;-75
2022/08/22 06:08:16;;;;;;;9.95;4.05;;;;;;;;;;4991167;28;20488;-74
2022/08/22 06:10:44;;;;;;;12.70;3.83;;;;;;;;;;4995121;28;20030;-74
2022/08/22 06:13:10;;;;;;;13.55;4.65;;;;;;;;;;4977223;28;20452;-74
2022/08/22 06:15:53;;;;;;;9.07;4.10;;;;;;;;;;4994484;28;20362;-74
2022/08/22 06:18:21;;;;;;;7.95;3.40;;;;;;;;;;4994511;28;20096;-74
2022/08/22 06:20:48;;;;;;;8.02;4.03;;;;;;;;;;4994735;28;21177;-74
2022/08/22 06:23:29;;;;;;;5.78;3.92;;;;;;;;;;4977898;28;20026;-74
2022/08/22 06:25:57;;;;;;;8.73;3.72;;;;;;;;;;4994993;28;20026;-74
2022/08/22 06:28:25;;;;;;;11.35;3.83;;;;;;;;;;4977338;28;20084;-74
2022/08/22 06:30:53;;;;;;;8.85;4.07;;;;;;;;;;4994898;28;20366;-74
2022/08/22 06:33:25;;;;;;;8.25;3.47;;;;;;;;;;4994751;28;20022;-74
2022/08/22 06:39:01;;;;;;;9.43;3.75;;;;;;;;;;4994506;28;20053;-74
2022/08/22 06:41:29;;;;;;;12.68;3.83;;;;;;;;;;4965454;28;20105;-73
2022/08/22 06:43:55;;;;;;;10.20;3.83;;;;;;;;;;4976590;28;20049;-75
2022/08/22 06:46:23;;;;;;;16.45;4.28;;;;;;;;;;4977039;28;20033;-74
2022/08/22 06:48:50;;;;;;;11.38;4.22;;;;;;;;;;4993603;28;20109;-73
2022/08/22 06:51:18;;;;;;;10.63;3.60;;;;;;;;;;4994312;28;20034;-75
2022/08/22 06:53:46;;;;;;;8.20;3.83;;;;;;;;;;4993847;28;20026;-74
2022/08/22 06:56:18;;;;;;;8.75;3.58;;;;;;;;;;4976559;28;20027;-74
2022/08/22 06:58:46;;;;;;;10.90;4.20;;;;;;;;;;4976411;28;20500;-74
2022/08/22 07:01:14;;;;;;;11.02;3.78;;;;;;;;;;4993898;28;20023;-74
2022/08/22 07:03:43;;;;;;;7.78;3.70;;;;;;;;;;4994137;28;20030;-74
2022/08/22 07:06:16;;;;;;;12.30;4.15;;;;;;;;;;4976550;28;20027;-76
2022/08/22 07:08:43;;;;;;;12.52;4.80;;;;;;;;;;4993982;28;20041;-74
2022/08/22 07:11:29;;;;;;;6.97;4.82;;;;;;;;;;4993935;28;20022;-74
2022/08/22 07:13:58;;;;;;;7.60;4.70;;;;;;;;;;4994332;28;20485;-75
2022/08/22 07:16:30;;;;;;;9.95;4.40;;;;;;;;;;4994447;28;20014;-74
2022/08/22 07:18:56;;;;;;;16.77;5.13;;;;;;;;;;4993688;28;20121;-75
2022/08/22 07:21:24;;;;;;;8.02;5.35;;;;;;;;;;4975925;28;20022;-74
2022/08/22 07:23:51;;;;;;;10.23;5.10;;;;;;;;;;4993772;28;20030;-73
2022/08/22 07:26:26;;;;;;;11.32;5.95;;;;;;;;;;4993574;28;20026;-74
2022/08/22 07:29:12;;;;;;;10.10;4.68;;;;;;;;;;4993585;28;20038;-74
2022/08/22 07:31:58;;;;;;;10.27;5.18;;;;;;;;;;4956486;28;20070;-74
2022/08/22 07:34:30;;;;;;;9.02;4.30;;;;;;;;;;4993441;28;20101;-74
2022/08/22 07:37:08;;;;;;;10.50;5.47;;;;;;;;;;4994099;28;20488;-75
2022/08/22 07:39:37;;;;;;;10.55;5.00;;;;;;;;;;4981702;28;20556;-73
2022/08/22 07:42:10;;;;;;;8.65;4.90;;;;;;;;;;4995632;28;20018;-74
2022/08/22 07:44:56;;;;;;;10.82;5.10;;;;;;;;;;4995317;28;20045;-73
2022/08/22 07:47:23;;;;;;;8.52;4.25;;;;;;;;;;4995912;28;20093;-75
2022/08/22 07:50:01;;;;;;;13.07;5.35;;;;;;;;;;4996201;28;20106;-73
2022/08/22 07:52:31;;;;;;;12.07;5.45;;;;;;;;;;4995304;28;20022;-73
2022/08/22 07:55:10;;;;;;;13.00;4.93;;;;;;;;;;4993405;28;20033;-75
2022/08/22 07:57:38;;;;;;;9.10;4.55;;;;;;;;;;4992917;28;20034;-74
2022/08/22 08:00:10;;;;;;;17.17;4.55;;;;;;;;;;4992768;28;20101;-74
2022/08/22 08:02:37;;;;;;;9.43;4.20;;;;;;;;;;4993238;28;20139;-74
2022/08/22 08:05:04;;;;;;;8.65;4.57;;;;;;;;;;4992696;28;20085;-74
2022/08/22 08:07:31;;;;;;;8.32;3.67;;;;;;;;;;4992580;28;20398;-74
2022/08/22 08:10:10;;;;;;;10.77;4.63;;;;;;;;;;4975537;28;20423;-75
2022/08/22 08:12:41;;;;;;;8.20;4.40;;;;;;;;;;4992695;28;20026;-74
2022/08/22 08:15:10;;;;;;;8.35;4.43;;;;;;;;;;4992929;28;20018;-75
2022/08/22 08:17:37;;;;;;;7.72;4.00;;;;;;;;;;4974730;28;20113;-73
2022/08/22 08:20:11;;;;;;;8.18;4.40;;;;;;;;;;4975276;28;20084;-75
2022/08/22 08:22:38;;;;;;;12.05;4.47;;;;;;;;;;4992368;28;20493;-75
2022/08/22 08:25:05;;;;;;;8.70;4.35;;;;;;;;;;4993275;28;20058;-76
2022/08/22 08:30:23;;;;;;;7.25;3.95;;;;;;;;;;4993668;28;20104;-74
2022/08/22 08:32:54;;;;;;;8.82;3.47;;;;;;;;;;4974162;28;20081;-75
2022/08/22 08:35:22;;;;;;;8.38;3.92;;;;;;;;;;4992926;28;20076;-76
2022/08/22 08:37:57;;;;;;;9.43;3.75;;;;;;;;;;4974917;28;20026;-76
2022/08/22 08:40:43;;;;;;;8.52;3.65;;;;;;;;;;4993246;28;20029;-74
2022/08/22 08:43:28;;;;;;;9.52;4.00;;;;;;;;;;4964781;28;20030;-75
2022/08/22 08:45:54;;;;;;;6.65;4.15;;;;;;;;;;4992701;28;20053;-76
2022/08/22 08:48:28;;;;;;;11.30;3.95;;;;;;;;;;4994440;28;20027;-74
2022/08/22 08:50:59;;;;;;;10.80;4.43;;;;;;;;;;4993721;28;20034;-76
2022/08/22 08:53:45;;;;;;;9.75;4.32;;;;;;;;;;4993791;28;20066;-74
2022/08/22 08:56:30;;;;;;;10.00;4.40;;;;;;;;;;4992348;28;20080;-75
2022/08/22 08:59:07;;;;;;;13.43;4.00;;;;;;;;;;4994394;28;20035;-75
2022/08/22 09:01:33;;;;;;;10.10;4.10;;;;;;;;;;4992662;28;20029;-75
2022/08/22 09:04:18;;;;;;;6.93;3.78;;;;;;;;;;4991845;28;20062;-75
2022/08/22 09:06:57;;;;;;;7.72;3.70;;;;;;;;;;4974699;28;20061;-75
2022/08/22 09:09:48;;;;;;;10.50;3.97;;;;;;;;;;4991678;28;20102;-74
2022/08/22 09:12:43;;;;;;;10.02;4.20;;;;;;;;;;4991918;28;20555;-74
2022/08/22 09:15:18;;;;;;;7.30;3.50;;;;;;;;;;4922343;28;20096;-75
2022/08/22 09:20:46;;;;;;;8.50;2.20;;;;;;;;;;5014813;28;20512;-74
2022/08/22 09:23:31;;;;;;;5.25;1.83;;;;;;;;;;5020319;28;20035;-74
2022/08/22 09:26:03;;;;;;;4.25;1.90;;;;;;;;;;5013727;28;20014;-74
2022/08/22 09:28:52;;;;;;;7.18;1.80;;;;;;;;;;5011454;28;20396;-74
2022/08/22 09:31:21;;;;;;;6.75;2.70;;;;;;;;;;5011737;28;20010;-74
2022/08/22 09:34:04;;;;;;;8.73;2.67;;;;;;;;;;5011510;28;20037;-73
2022/08/22 09:36:43;;;;;;;5.88;2.15;;;;;;;;;;5018793;28;20056;-75
2022/08/22 09:39:27;;;;;;;6.22;2.13;;;;;;;;;;5014052;28;20487;-74
2022/08/22 09:42:19;;;;;;;6.43;2.33;;;;;;;;;;5011620;28;20057;-74
2022/08/22 09:45:12;;;;;;;5.35;1.98;;;;;;;;;;5011314;28;20038;-74
2022/08/22 09:47:44;;;;;;;8.52;2.20;;;;;;;;;;4993529;28;20088;-74
2022/08/22 09:50:11;;;;;;;7.32;2.15;;;;;;;;;;5015081;28;20046;-75
2022/08/22 09:52:43;;;;;;;4.45;2.00;;;;;;;;;;5017021;28;20025;-74
2022/08/22 09:55:18;;;;;;;8.45;2.10;;;;;;;;;;5023942;28;20029;-74
2022/08/22 09:57:44;;;;;;;7.00;2.65;;;;;;;;;;5014877;28;20022;-73
2022/08/22 10:00:11;;;;;;;4.50;2.25;;;;;;;;;;5015002;28;20510;-74
2022/08/22 10:02:39;;;;;;;5.78;2.40;;;;;;;;;;5013503;28;20022;-75
2022/08/22 10:05:23;;;;;;;5.20;2.65;;;;;;;;;;5023993;28;20029;-75
2022/08/22 10:08:28;;;;;;;6.50;2.35;;;;;;;;;;5014435;28;20033;-74
2022/08/22 10:10:54;;;;;;;8.02;2.42;;;;;;;;;;4956352;28;20023;-75
2022/08/22 10:13:30;;;;;;;6.38;2.28;;;;;;;;;;4937917;28;20143;-73
2022/08/22 10:16:01;;;;;;;4.82;2.03;;;;;;;;;;4990798;28;20112;-74
2022/08/22 10:18:33;;;;;;;3.67;1.90;;;;;;;;;;5023228;28;20091;-75
2022/08/22 10:20:59;;;;;;;3.53;1.83;;;;;;;;;;5017631;28;20033;-75
2022/08/22 10:23:34;;;;;;;5.68;2.15;;;;;;;;;;5022246;28;20022;-76
2022/08/22 10:26:13;;;;;;;3.40;1.50;;;;;;;;;;5012854;28;20026;-75
2022/08/22 10:28:39;;;;;;;5.88;2.45;;;;;;;;;;5014033;28;20041;-75
2022/08/22 10:31:08;;;;;;;3.80;1.98;;;;;;;;;;5014361;28;20512;-75
2022/08/22 10:33:43;;;;;;;6.43;2.03;;;;;;;;;;5012859;28;20037;-74
2022/08/22 10:36:12;;;;;;;4.95;1.92;;;;;;;;;;5012597;28;20022;-75
2022/08/22 10:38:50;;;;;;;5.28;1.95;;;;;;;;;;5012479;28;20492;-75
2022/08/22 10:41:35;;;;;;;5.25;2.13;;;;;;;;;;5014476;28;20368;-75
2022/08/22 10:44:13;;;;;;;4.15;2.20;;;;;;;;;;5013767;28;20492;-75
2022/08/22 10:46:52;;;;;;;4.95;2.28;;;;;;;;;;5012709;28;20030;-74
2022/08/22 10:49:21;;;;;;;3.83;2.10;;;;;;;;;;5012476;28;20030;-75
2022/08/22 10:52:01;;;;;;;4.05;1.90;;;;;;;;;;5014135;28;20034;-75
2022/08/22 10:54:42;;;;;;;7.00;2.33;;;;;;;;;;5013549;28;20030;-75
2022/08/22 10:57:08;;;;;;;3.58;1.80;;;;;;;;;;5013074;28;20085;-75
2022/08/22 10:59:43;;;;;;;5.55;2.58;;;;;;;;;;5019127;28;20033;-74
2022/08/22 11:02:10;;;;;;;5.32;1.95;;;;;;;;;;5019365;28;20026;-75
2022/08/22 11:04:39;;;;;;;6.20;2.10;;;;;;;;;;5012690;28;20018;-75
2022/08/22 11:07:34;;;;;;;4.07;1.80;;;;;;;;;;5013747;28;20029;-75
2022/08/22 11:10:07;;;;;;;6.40;2.22;;;;;;;;;;5013897;28;20018;-75
2022/08/22 11:12:39;;;;;;;5.38;1.77;;;;;;;;;;5013446;28;20407;-75
2022/08/22 11:15:11;;;;;;;4.93;2.42;;;;;;;;;;5012371;28;20118;-75
2022/08/22 11:17:37;;;;;;;;;;;;;;;;;;5017594;28;20502;-75
2022/08/22 11:20:07;;;;;;;6.75;2.20;;;;;;;;;;5021408;28;20000;-75
2022/08/22 11:22:42;;;;;;;5.75;2.72;;;;;;;;;;5013476;28;20022;-75
2022/08/22 11:25:14;;;;;;;3.35;2.10;;;;;;;;;;5013596;28;20029;-74
2022/08/22 11:27:40;;;;;;;6.57;2.67;;;;;;;;;;5013166;28;20052;-74
2022/08/22 11:30:08;;;;;;;5.60;2.22;;;;;;;;;;5023945;28;20033;-74
2022/08/22 11:32:34;;;;;;;6.07;2.45;;;;;;;;;;5015183;28;20033;-74
2022/08/22 11:35:10;;;;;;;6.53;2.42;;;;;;;;;;5013224;28;20070;-74
2022/08/22 11:37:55;;;;;;;5.32;2.45;;;;;;;;;;5012855;28;20029;-74
2022/08/22 11:40:39;;;;;;;4.60;2.13;;;;;;;;;;5013354;28;20491;-75
2022/08/22 11:43:11;;;;;;;7.38;2.40;;;;;;;;;;5019611;28;20040;-74
2022/08/22 11:45:40;;;;;;;4.88;2.05;;;;;;;;;;5016240;28;20041;-74
2022/08/22 11:48:12;;;;;;;4.32;1.98;;;;;;;;;;5013117;28;20054;-74
2022/08/22 11:50:42;;;;;;;4.13;2.05;;;;;;;;;;5011922;28;20116;-75
2022/08/22 11:53:08;;;;;;;5.85;2.13;;;;;;;;;;5013011;28;20036;-74
2022/08/22 11:55:40;;;;;;;6.00;1.73;;;;;;;;;;5012914;28;20017;-74
2022/08/22 11:58:14;;;;;;;4.85;2.22;;;;;;;;;;5012657;28;20077;-75
2022/08/22 12:00:40;;;;;;;8.55;2.17;;;;;;;;;;5012877;28;20029;-74
2022/08/22 12:03:17;;;;;;;6.32;2.00;;;;;;;;;;5012663;28;20026;-74
2022/08/22 12:05:47;;;;;;;7.47;2.40;;;;;;;;;;5012694;28;20080;-74
2022/08/22 12:08:15;;;;;;;6.35;2.20;;;;;;;;;;5012091;28;20034;-74
2022/08/22 12:11:08;;;;;;;6.30;1.90;;;;;;;;;;5014530;28;20034;-74
2022/08/22 12:13:53;;;;;;;3.58;2.25;;;;;;;;;;5017407;28;20109;-74
2022/08/22 12:16:37;;;;;;;6.20;2.42;;;;;;;;;;5019721;28;20108;-74
2022/08/22 12:19:15;;;;;;;5.00;2.20;;;;;;;;;;5016063;28;20286;-74
2022/08/22 12:21:54;;;;;;;7.47;2.33;;;;;;;;;;5012692;28;20536;-74
2022/08/22 12:24:34;;;;;;;5.55;2.25;;;;;;;;;;5014484;28;20037;-74
2022/08/22 12:27:12;;;;;;;5.80;2.40;;;;;;;;;;5012467;28;20025;-74
2022/08/22 12:29:50;;;;;;;7.55;2.40;;;;;;;;;;5012903;28;20025;-73
2022/08/22 12:32:37;;;;;;;5.07;2.38;;;;;;;;;;5012004;28;20108;-75
2022/08/22 12:35:08;;;;;;;5.75;1.98;;;;;;;;;;4990790;28;20057;-74
2022/08/22 12:37:44;;;;;;;4.28;2.55;;;;;;;;;;5011666;28;20022;-74
2022/08/22 12:40:23;;;;;;;4.78;2.15;;;;;;;;;;5012675;28;20046;-74
2022/08/22 12:42:58;;;;;;;4.88;2.35;;;;;;;;;;5011871;28;20033;-76
2022/08/22 12:45:29;;;;;;;4.32;2.35;;;;;;;;;;5010766;28;20302;-74
2022/08/22 12:48:07;;;;;;;4.90;2.22;;;;;;;;;;5018176;28;20148;-74
2022/08/22 12:50:39;;;;;;;7.63;2.55;;;;;;;;;;5016794;28;20037;-74
2022/08/22 12:53:24;;;;;;;3.67;2.20;;;;;;;;;;5011251;28;20029;-75
2022/08/22 12:55:50;;;;;;;4.85;1.92;;;;;;;;;;5011889;28;20018;-75
2022/08/22 12:58:22;;;;;;;3.78;2.08;;;;;;;;;;5010301;28;20018;-74
2022/08/22 13:00:50;;;;;;;4.43;2.25;;;;;;;;;;5010599;28;20451;-75
2022/08/22 13:03:34;;;;;;;5.72;2.22;;;;;;;;;;5011354;28;20117;-74
2022/08/22 13:06:26;;;;;;;4.43;2.17;;;;;;;;;;5011933;28;20050;-74
2022/08/22 13:08:53;;;;;;;2.95;2.17;;;;;;;;;;5010760;28;20464;-74
2022/08/22 13:11:20;;;;;;;7.07;2.22;;;;;;;;;;5011570;28;20022;-74
2022/08/22 13:13:52;;;;;;;5.38;2.47;;;;;;;;;;5011582;28;20435;-74
2022/08/22 13:16:19;;;;;;;7.78;2.47;;;;;;;;;;5018545;28;20093;-75
2022/08/22 13:18:53;;;;;;;7.05;2.33;;;;;;;;;;5018515;28;20021;-75
2022/08/22 13:21:22;;;;;;;6.25;2.28;;;;;;;;;;5021093;28;20021;-75
2022/08/22 13:23:52;;;;;;;2.83;2.00;;;;;;;;;;5021460;28;20526;-75
2022/08/22 13:26:18;;;;;;;4.07;2.10;;;;;;;;;;5013900;28;20021;-74
2022/08/22 13:28:45;;;;;;;2.70;1.85;;;;;;;;;;5014905;28;20077;-75
2022/08/22 13:31:24;;;;;;;7.57;2.78;;;;;;;;;;5013980;28;20057;-74
2022/08/22 13:33:51;;;;;;;5.70;2.15;;;;;;;;;;5015162;28;20399;-75
2022/08/22 13:36:19;;;;;;;6.82;2.38;;;;;;;;;;5022047;28;20017;-73
2022/08/22 13:39:06;;;;;;;4.00;1.77;;;;;;;;;;5020107;28;20260;-74
2022/08/22 13:41:35;;;;;;;4.00;1.77;;;;;;;;;;5024324;28;20028;-74
2022/08/22 13:44:04;;;;;;;10.25;2.60;;;;;;;;;;5018965;28;20037;-74
2022/08/22 13:46:31;;;;;;;5.97;2.40;;;;;;;;;;5013787;28;20022;-73
2022/08/22 13:48:58;;;;;;;3.80;2.38;;;;;;;;;;5028226;28;20556;-75
2022/08/22 13:51:28;;;;;;;5.18;2.38;;;;;;;;;;5015533;28;20030;-75
2022/08/22 13:54:09;;;;;;;3.05;1.90;;;;;;;;;;5014656;28;20037;-75
2022/08/22 13:56:55;;;;;;;4.00;1.88;;;;;;;;;;5022679;28;20017;-74
2022/08/22 13:59:28;;;;;;;6.32;2.13;;;;;;;;;;5023656;28;20022;-75
2022/08/22 14:02:09;;;;;;;3.63;1.70;;;;;;;;;;5014687;28;20026;-74
2022/08/22 14:04:39;;;;;;;5.43;2.17;;;;;;;;;;5020005;28;20027;-75
2022/08/22 14:07:05;;;;;;;4.13;1.88;;;;;;;;;;5021424;28;20034;-74
2022/08/22 14:09:34;;;;;;;8.20;2.33;;;;;;;;;;5013286;28;20037;-74
2022/08/22 14:12:07;;;;;;;4.78;2.20;;;;;;;;;;5014817;28;20048;-74
2022/08/22 14:14:34;;;;;;;6.40;2.28;;;;;;;;;;5020865;28;20028;-74
2022/08/22 14:17:01;;;;;;;5.15;1.92;;;;;;;;;;5021478;28;20022;-75
2022/08/22 14:19:34;;;;;;;4.63;1.70;;;;;;;;;;5014098;28;20026;-75
2022/08/22 14:22:02;;;;;;;4.68;2.22;;;;;;;;;;5014496;28;20434;-75
2022/08/22 14:24:31;;;;;;;6.32;2.53;;;;;;;;;;5027686;28;20029;-74
2022/08/22 14:27:02;;;;;;;4.20;2.10;;;;;;;;;;5014417;28;20481;-74
2022/08/22 14:29:31;;;;;;;7.88;2.20;;;;;;;;;;5014273;28;20159;-74
2022/08/22 14:31:59;;;;;;;3.88;2.33;;;;;;;;;;5013271;28;20510;-75
2022/08/22 14:34:26;;;;;;;5.15;1.95;;;;;;;;;;5013952;28;20018;-74
2022/08/22 14:37:11;;;;;;;6.18;2.40;;;;;;;;;;5014596;28;20558;-74
2022/08/22 14:39:41;;;;;;;6.07;2.08;;;;;;;;;;5021300;28;20021;-74
2022/08/22 14:42:34;;;;;;;4.75;2.15;;;;;;;;;;5020645;28;20018;-74
2022/08/22 14:45:00;;;;;;;7.47;2.80;;;;;;;;;;4998770;28;20030;-74
2022/08/22 14:47:26;;;;;;;4.25;1.90;;;;;;;;;;5012804;28;20424;-76
2022/08/22 14:49:57;;;;;;;5.38;2.22;;;;;;;;;;5022085;28;20025;-74
2022/08/22 14:52:38;;;;;;;4.82;2.10;;;;;;;;;;5018670;28;20028;-74
2022/08/22 14:55:08;;;;;;;3.00;1.80;;;;;;;;;;5014264;28;20022;-75
2022/08/22 14:57:35;;;;;;;7.38;2.65;;;;;;;;;;5014599;28;20021;-75
2022/08/22 15:00:09;;;;;;;5.45;2.20;;;;;;;;;;5015111;28;20018;-73
2022/08/22 15:02:35;;;;;;;7.47;2.67;;;;;;;;;;5029024;28;20033;-74
2022/08/22 15:05:12;;;;;;;3.88;2.30;;;;;;;;;;5015046;28;20030;-74
2022/08/22 15:07:39;;;;;;;3.95;1.75;;;;;;;;;;5019464;28;20030;-73
2022/08/22 15:10:27;;;;;;;4.38;2.10;;;;;;;;;;5027712;28;20496;-74
2022/08/22 15:12:54;;;;;;;4.40;1.90;;;;;;;;;;5031266;28;20038;-75
2022/08/22 15:15:33;;;;;;;3.50;1.70;;;;;;;;;;5031024;28;20054;-74
2022/08/22 15:20:37;;;;;;;8.75;2.35;;;;;;;;;;4990810;28;20137;-77
2022/08/22 15:23:06;;;;;;;5.82;2.30;;;;;;;;;;4993517;28;20386;-77
2022/08/22 15:25:39;;;;;;;4.97;2.20;;;;;;;;;;4976018;28;20034;-75
2022/08/22 15:28:26;;;;;;;4.70;2.35;;;;;;;;;;4993465;28;20114;-74
2022/08/22 15:30:52;;;;;;;4.93;2.58;;;;;;;;;;4973736;28;20027;-75
2022/08/22 15:33:21;;;;;;;3.47;2.15;;;;;;;;;;4974140;28;20031;-76
2022/08/22 15:35:47;;;;;;;5.38;2.30;;;;;;;;;;4974261;28;20117;-77